createdAt,value
2018-06-12T00:00:10.508Z,20.40
2018-06-12T00:02:38.670Z,20.40
2018-06-12T00:05:06.855Z,20.40
2018-06-12T00:07:35.042Z,20.40
2018-06-12T00:10:03.271Z,20.40
2018-06-12T00:12:31.433Z,20.30
2018-06-12T00:14:59.615Z,20.30
2018-06-12T00:17:27.780Z,20.40
2018-06-12T00:19:55.933Z,20.30
2018-06-12T00:22:24.265Z,20.10
2018-06-12T00:24:52.728Z,20.20
2018-06-12T00:27:20.901Z,20.20
2018-06-12T00:29:49.112Z,20.10
2018-06-12T00:32:17.315Z,20.10
2018-06-12T00:34:45.478Z,20.00
2018-06-12T00:37:13.728Z,19.90
2018-06-12T00:39:41.892Z,19.80
2018-06-12T00:42:10.061Z,19.70
2018-06-12T00:44:38.239Z,19.70
2018-06-12T00:47:06.424Z,19.70
2018-06-12T00:49:34.569Z,19.90
2018-06-12T00:52:02.777Z,19.90
2018-06-12T00:54:30.943Z,20.00
2018-06-12T00:57:04.716Z,19.90
2018-06-12T00:59:32.889Z,19.90
2018-06-12T01:02:01.093Z,19.90
2018-06-12T01:06:57.214Z,19.80
2018-06-12T01:09:25.401Z,19.90
2018-06-12T01:11:53.777Z,20.00
2018-06-12T01:14:21.941Z,20.10
2018-06-12T01:16:50.097Z,20.20
2018-06-12T01:19:18.352Z,20.10
2018-06-12T01:21:46.513Z,20.10
2018-06-12T01:24:14.703Z,20.00
2018-06-12T01:26:42.885Z,19.90
2018-06-12T01:29:11.076Z,19.80
2018-06-12T01:31:39.261Z,19.80
2018-06-12T01:34:07.446Z,19.80
2018-06-12T01:36:35.618Z,19.50
2018-06-12T01:39:05.773Z,19.50
2018-06-12T01:41:34.013Z,19.50
2018-06-12T01:44:02.193Z,19.50
2018-06-12T01:46:30.366Z,19.50
2018-06-12T01:48:58.574Z,19.40
2018-06-12T01:51:26.753Z,19.40
2018-06-12T01:53:54.932Z,19.30
2018-06-12T01:56:23.115Z,19.00
2018-06-12T01:58:51.325Z,18.80
2018-06-12T02:01:19.590Z,18.80
2018-06-12T02:03:47.787Z,18.90
2018-06-12T02:06:16.018Z,18.70
2018-06-12T02:08:44.240Z,18.70
2018-06-12T02:11:12.423Z,18.40
2018-06-12T02:13:40.628Z,18.40
2018-06-12T02:16:08.845Z,18.30
2018-06-12T02:18:37.267Z,18.50
2018-06-12T02:21:05.435Z,18.50
2018-06-12T02:23:33.635Z,18.40
2018-06-12T02:26:01.787Z,18.40
2018-06-12T02:28:29.957Z,18.40
2018-06-12T02:30:58.168Z,18.40
2018-06-12T02:33:26.342Z,18.50
2018-06-12T02:35:54.493Z,18.50
2018-06-12T02:38:22.681Z,18.60
2018-06-12T02:40:50.835Z,18.50
2018-06-12T02:43:19.030Z,18.50
2018-06-12T02:45:47.246Z,18.30
2018-06-12T02:48:15.445Z,18.30
2018-06-12T02:50:43.612Z,18.30
2018-06-12T02:55:39.897Z,18.30
2018-06-12T02:58:08.078Z,18.30
2018-06-12T03:00:36.262Z,18.20
2018-06-12T03:03:04.468Z,18.20
2018-06-12T03:05:32.673Z,18.30
2018-06-12T03:08:01.001Z,18.40
2018-06-12T03:10:29.192Z,18.40
2018-06-12T03:12:57.393Z,18.30
2018-06-12T03:15:25.603Z,18.30
2018-06-12T03:17:53.764Z,18.10
2018-06-12T03:20:33.913Z,17.90
2018-06-12T03:23:02.093Z,17.80
2018-06-12T03:25:30.280Z,18.00
2018-06-12T03:27:58.500Z,17.80
2018-06-12T03:30:26.677Z,17.80
2018-06-12T03:32:54.872Z,17.70
2018-06-12T03:35:23.056Z,17.80
2018-06-12T03:37:51.273Z,18.00
2018-06-12T03:40:19.422Z,17.90
2018-06-12T03:42:47.608Z,18.00
2018-06-12T03:45:15.788Z,18.00
2018-06-12T03:47:43.950Z,17.90
2018-06-12T03:50:12.193Z,17.80
2018-06-12T03:52:40.375Z,17.90
2018-06-12T03:55:08.532Z,17.90
2018-06-12T04:00:11.209Z,17.80
2018-06-12T04:02:39.384Z,17.80
2018-06-12T04:05:07.585Z,17.70
2018-06-12T04:07:35.755Z,17.70
2018-06-12T04:10:03.936Z,17.60
2018-06-12T04:12:32.116Z,17.60
2018-06-12T04:15:00.306Z,17.80
2018-06-12T04:17:28.453Z,17.80
2018-06-12T04:19:56.652Z,17.70
2018-06-12T04:22:24.814Z,17.80
2018-06-12T04:24:52.963Z,17.80
2018-06-12T04:27:21.125Z,17.80
2018-06-12T04:29:49.287Z,17.90
2018-06-12T04:32:17.449Z,17.90
2018-06-12T04:34:45.664Z,17.90
2018-06-12T04:37:13.820Z,18.00
2018-06-12T04:39:41.994Z,18.00
2018-06-12T04:42:10.207Z,17.90
2018-06-12T04:44:38.382Z,17.90
2018-06-12T04:47:06.562Z,17.80
2018-06-12T04:49:34.747Z,17.70
2018-06-12T04:52:02.900Z,17.80
2018-06-12T04:54:31.127Z,17.80
2018-06-12T04:56:59.280Z,17.80
2018-06-12T04:59:27.461Z,17.80
2018-06-12T05:01:57.777Z,17.70
2018-06-12T05:04:25.966Z,17.70
2018-06-12T05:06:54.207Z,17.80
2018-06-12T05:09:22.532Z,17.90
2018-06-12T05:11:50.852Z,17.90
2018-06-12T05:14:19.038Z,18.00
2018-06-12T05:16:47.238Z,18.10
2018-06-12T05:19:15.425Z,18.20
2018-06-12T05:24:11.532Z,18.30
2018-06-12T05:26:43.246Z,18.20
2018-06-12T05:29:12.148Z,18.10
2018-06-12T05:31:40.321Z,18.20
2018-06-12T05:34:08.688Z,18.20
2018-06-12T05:36:36.877Z,18.10
2018-06-12T05:39:08.688Z,17.90
2018-06-12T05:41:37.682Z,18.00
2018-06-12T05:44:05.882Z,18.10
2018-06-12T05:46:34.052Z,18.20
2018-06-12T05:49:02.222Z,18.20
2018-06-12T05:51:30.449Z,18.20
2018-06-12T05:56:26.563Z,18.20
2018-06-12T05:58:54.766Z,18.30
2018-06-12T06:01:22.955Z,18.30
2018-06-12T06:03:51.141Z,18.40
2018-06-12T06:06:19.296Z,18.60
2018-06-12T06:08:47.503Z,18.80
2018-06-12T06:11:15.682Z,18.50
2018-06-12T06:13:43.828Z,18.70
2018-06-12T06:16:11.992Z,18.90
2018-06-12T06:18:40.185Z,19.20
2018-06-12T06:21:08.358Z,19.30
2018-06-12T06:23:36.550Z,19.10
2018-06-12T06:26:04.746Z,18.90
2018-06-12T06:31:01.868Z,18.80
2018-06-12T06:33:30.493Z,18.90
2018-06-12T06:35:58.661Z,18.90
2018-06-12T06:38:26.819Z,19.10
2018-06-12T06:40:55.120Z,19.30
2018-06-12T06:43:23.291Z,19.40
2018-06-12T06:45:51.451Z,19.50
2018-06-12T06:48:21.158Z,19.50
2018-06-12T06:50:49.337Z,19.50
2018-06-12T06:53:17.554Z,19.50
2018-06-12T06:55:45.730Z,19.60
2018-06-12T06:58:13.898Z,19.60
2018-06-12T07:00:42.116Z,19.80
2018-06-12T07:03:10.321Z,19.80
2018-06-12T07:05:38.523Z,20.00
2018-06-12T07:08:06.759Z,20.10
2018-06-12T07:10:34.989Z,20.40
2018-06-12T07:13:03.239Z,20.50
2018-06-12T07:15:31.467Z,20.40
2018-06-12T07:17:59.653Z,20.40
2018-06-12T07:20:39.168Z,20.30
2018-06-12T07:23:07.422Z,20.50
2018-06-12T07:25:35.621Z,20.60
2018-06-12T07:28:03.832Z,20.70
2018-06-12T07:30:32.060Z,20.90
2018-06-12T07:33:00.246Z,21.10
2018-06-12T07:35:28.463Z,21.00
2018-06-12T07:37:56.649Z,21.00
2018-06-12T07:40:24.871Z,21.10
2018-06-12T07:42:53.054Z,21.00
2018-06-12T07:45:21.228Z,21.10
2018-06-12T07:47:49.422Z,21.00
2018-06-12T07:50:17.650Z,21.10
2018-06-12T07:52:45.869Z,20.90
2018-06-12T07:55:14.100Z,20.80
2018-06-12T07:57:42.402Z,20.70
2018-06-12T08:02:38.560Z,21.00
